Fishersville, Virginia
Current Conditions -  °F | °C
As of 12:55 AM on Thursday 23 Oct 2014 (Local Time) from KW13 Reporting Station
Overcast Overcast  
Wind Chill: 43°   Ceiling: 3800
Heat Index: 45°   Visibility: 10mi
Dew Point: 39°   Wind: 5mph
Humidity: 78%   Direction: 280°W
Pressure: 30.03"   Gusts: NA
Location:  38.1°N, 78.97°W
Report Text: KW13 230455Z AUTO 28004KT 10SM OVC038 07/04 A3003 RMK AO1 T00740038 401520070
Loading
Personal Weather Stations






























Interactive Weather Map
Tropical Storm Tracking
New forecast layout! Learn more

10-Day Weather Forecast

Advertisements
Track Severe Weather on mobile